sensor_id;sensor_type;location;lat;lon;timestamp;temperature;humidity
40287;DHT22;25998;46.604;13.610;2023-02-04T00:02:58;4.70;99.90
40287;DHT22;25998;46.604;13.610;2023-02-04T00:06:09;4.60;99.90
40287;DHT22;25998;46.604;13.610;2023-02-04T00:09:20;4.60;99.90
40287;DHT22;25998;46.604;13.610;2023-02-04T00:12:31;4.70;99.90
40287;DHT22;25998;46.604;13.610;2023-02-04T00:15:43;4.70;99.90
40287;DHT22;25998;46.604;13.610;2023-02-04T00:18:54;4.60;99.90
40287;DHT22;25998;46.604;13.610;2023-02-04T00:22:05;4.70;99.90
40287;DHT22;25998;46.604;13.610;2023-02-04T00:25:17;4.70;99.90
40287;DHT22;25998;46.604;13.610;2023-02-04T00:28:28;4.60;99.90
40287;DHT22;25998;46.604;13.610;2023-02-04T00:31:38;4.60;99.90
40287;DHT22;25998;46.604;13.610;2023-02-04T00:34:49;4.60;99.90
40287;DHT22;25998;46.604;13.610;2023-02-04T00:38:00;4.60;99.90
40287;DHT22;25998;46.604;13.610;2023-02-04T00:41:11;4.60;99.90
40287;DHT22;25998;46.604;13.610;2023-02-04T00:44:22;4.70;99.90
40287;DHT22;25998;46.604;13.610;2023-02-04T00:47:33;4.70;99.90
40287;DHT22;25998;46.604;13.610;2023-02-04T00:50:43;4.60;99.90
40287;DHT22;25998;46.604;13.610;2023-02-04T00:53:54;4.60;99.90
40287;DHT22;25998;46.604;13.610;2023-02-04T00:57:05;4.60;99.90
40287;DHT22;25998;46.604;13.610;2023-02-04T01:00:16;4.60;99.90
40287;DHT22;25998;46.604;13.610;2023-02-04T01:03:27;4.60;99.90
40287;DHT22;25998;46.604;13.610;2023-02-04T01:06:38;4.60;99.90
40287;DHT22;25998;46.604;13.610;2023-02-04T01:09:49;4.70;99.90
40287;DHT22;25998;46.604;13.610;2023-02-04T01:13:00;4.70;99.90
40287;DHT22;25998;46.604;13.610;2023-02-04T01:16:11;4.70;99.90
40287;DHT22;25998;46.604;13.610;2023-02-04T01:19:22;4.80;99.90
40287;DHT22;25998;46.604;13.610;2023-02-04T01:22:33;4.70;99.90
40287;DHT22;25998;46.604;13.610;2023-02-04T01:25:44;4.90;99.90
40287;DHT22;25998;46.604;13.610;2023-02-04T01:28:55;5.00;99.90
40287;DHT22;25998;46.604;13.610;2023-02-04T01:32:06;5.10;99.90
40287;DHT22;25998;46.604;13.610;2023-02-04T01:35:16;5.10;99.90
40287;DHT22;25998;46.604;13.610;2023-02-04T01:38:27;5.00;99.90
40287;DHT22;25998;46.604;13.610;2023-02-04T01:41:39;4.90;99.90
40287;DHT22;25998;46.604;13.610;2023-02-04T01:44:50;4.80;99.90
40287;DHT22;25998;46.604;13.610;2023-02-04T01:48:05;4.80;99.90
40287;DHT22;25998;46.604;13.610;2023-02-04T01:51:22;4.70;99.90
40287;DHT22;25998;46.604;13.610;2023-02-04T01:54:36;4.70;99.90
40287;DHT22;25998;46.604;13.610;2023-02-04T01:57:49;4.70;99.90
40287;DHT22;25998;46.604;13.610;2023-02-04T02:01:08;4.70;99.90
40287;DHT22;25998;46.604;13.610;2023-02-04T02:04:31;4.70;99.90
40287;DHT22;25998;46.604;13.610;2023-02-04T02:07:43;4.60;99.90
40287;DHT22;25998;46.604;13.610;2023-02-04T02:10:54;4.60;99.90
40287;DHT22;25998;46.604;13.610;2023-02-04T02:14:05;4.50;99.90
40287;DHT22;25998;46.604;13.610;2023-02-04T02:17:15;4.50;99.90
40287;DHT22;25998;46.604;13.610;2023-02-04T02:20:27;4.40;99.90
40287;DHT22;25998;46.604;13.610;2023-02-04T02:23:50;4.50;99.90
40287;DHT22;25998;46.604;13.610;2023-02-04T02:27:07;4.60;99.90
40287;DHT22;25998;46.604;13.610;2023-02-04T02:30:19;4.40;99.90
40287;DHT22;25998;46.604;13.610;2023-02-04T02:33:29;4.40;99.90
40287;DHT22;25998;46.604;13.610;2023-02-04T02:36:40;4.30;99.90
40287;DHT22;25998;46.604;13.610;2023-02-04T02:39:51;4.40;99.90
40287;DHT22;25998;46.604;13.610;2023-02-04T02:43:03;4.50;99.90
40287;DHT22;25998;46.604;13.610;2023-02-04T02:46:14;4.50;99.90
40287;DHT22;25998;46.604;13.610;2023-02-04T02:49:25;4.60;99.90
40287;DHT22;25998;46.604;13.610;2023-02-04T02:52:37;4.70;99.90
40287;DHT22;25998;46.604;13.610;2023-02-04T02:55:48;4.70;99.90
40287;DHT22;25998;46.604;13.610;2023-02-04T02:59:12;4.70;99.90
40287;DHT22;25998;46.604;13.610;2023-02-04T03:02:23;4.50;99.90
40287;DHT22;25998;46.604;13.610;2023-02-04T03:05:40;4.60;99.90
40287;DHT22;25998;46.604;13.610;2023-02-04T03:08:52;4.50;99.90
40287;DHT22;25998;46.604;13.610;2023-02-04T03:12:05;4.40;99.90
40287;DHT22;25998;46.604;13.610;2023-02-04T03:15:17;4.40;99.90
40287;DHT22;25998;46.604;13.610;2023-02-04T03:18:27;4.40;99.90
40287;DHT22;25998;46.604;13.610;2023-02-04T03:21:39;4.40;99.90
40287;DHT22;25998;46.604;13.610;2023-02-04T03:24:51;4.30;99.90
40287;DHT22;25998;46.604;13.610;2023-02-04T03:28:01;4.50;99.90
40287;DHT22;25998;46.604;13.610;2023-02-04T03:31:13;4.50;99.90
40287;DHT22;25998;46.604;13.610;2023-02-04T03:34:24;4.50;99.90
40287;DHT22;25998;46.604;13.610;2023-02-04T03:37:35;4.40;99.90
40287;DHT22;25998;46.604;13.610;2023-02-04T03:40:46;4.50;99.90
40287;DHT22;25998;46.604;13.610;2023-02-04T03:43:56;4.50;99.90
40287;DHT22;25998;46.604;13.610;2023-02-04T03:47:07;4.50;99.90
40287;DHT22;25998;46.604;13.610;2023-02-04T03:50:18;4.50;99.90
40287;DHT22;25998;46.604;13.610;2023-02-04T03:53:29;4.50;99.90
40287;DHT22;25998;46.604;13.610;2023-02-04T03:56:40;4.40;99.90
40287;DHT22;25998;46.604;13.610;2023-02-04T03:59:51;4.40;99.90
40287;DHT22;25998;46.604;13.610;2023-02-04T04:03:01;4.30;99.90
40287;DHT22;25998;46.604;13.610;2023-02-04T04:06:12;4.40;99.90
40287;DHT22;25998;46.604;13.610;2023-02-04T04:09:23;4.50;99.90
40287;DHT22;25998;46.604;13.610;2023-02-04T04:12:37;4.50;99.90
40287;DHT22;25998;46.604;13.610;2023-02-04T04:15:48;4.40;99.90
40287;DHT22;25998;46.604;13.610;2023-02-04T04:18:58;4.40;99.90
40287;DHT22;25998;46.604;13.610;2023-02-04T04:22:10;4.40;99.90
40287;DHT22;25998;46.604;13.610;2023-02-04T04:25:21;4.40;99.90
40287;DHT22;25998;46.604;13.610;2023-02-04T04:28:32;4.40;99.90
40287;DHT22;25998;46.604;13.610;2023-02-04T04:31:43;4.40;99.90
40287;DHT22;25998;46.604;13.610;2023-02-04T04:34:54;4.30;99.90
40287;DHT22;25998;46.604;13.610;2023-02-04T04:38:05;4.50;99.90
40287;DHT22;25998;46.604;13.610;2023-02-04T04:41:15;4.50;99.90
40287;DHT22;25998;46.604;13.610;2023-02-04T04:44:26;4.40;99.90
40287;DHT22;25998;46.604;13.610;2023-02-04T04:47:37;4.60;99.90
40287;DHT22;25998;46.604;13.610;2023-02-04T04:50:48;4.70;99.90
40287;DHT22;25998;46.604;13.610;2023-02-04T04:53:59;4.80;99.90
40287;DHT22;25998;46.604;13.610;2023-02-04T04:57:09;4.90;99.90
40287;DHT22;25998;46.604;13.610;2023-02-04T05:00:21;4.80;99.90
40287;DHT22;25998;46.604;13.610;2023-02-04T05:03:31;4.90;99.90
40287;DHT22;25998;46.604;13.610;2023-02-04T05:06:42;4.80;99.90
40287;DHT22;25998;46.604;13.610;2023-02-04T05:09:53;4.90;99.90
40287;DHT22;25998;46.604;13.610;2023-02-04T05:13:04;5.00;99.90
40287;DHT22;25998;46.604;13.610;2023-02-04T05:16:15;5.00;99.90
40287;DHT22;25998;46.604;13.610;2023-02-04T05:19:27;4.80;99.90
40287;DHT22;25998;46.604;13.610;2023-02-04T05:22:38;4.70;99.90
40287;DHT22;25998;46.604;13.610;2023-02-04T05:25:49;4.90;99.90
40287;DHT22;25998;46.604;13.610;2023-02-04T05:28:59;4.90;99.90
40287;DHT22;25998;46.604;13.610;2023-02-04T05:32:10;5.20;99.90
40287;DHT22;25998;46.604;13.610;2023-02-04T05:35:21;5.20;99.90
40287;DHT22;25998;46.604;13.610;2023-02-04T05:38:32;5.00;99.90
40287;DHT22;25998;46.604;13.610;2023-02-04T05:41:43;4.90;99.90
40287;DHT22;25998;46.604;13.610;2023-02-04T05:44:54;5.10;99.90
40287;DHT22;25998;46.604;13.610;2023-02-04T05:48:04;5.30;99.80
40287;DHT22;25998;46.604;13.610;2023-02-04T05:51:15;5.30;99.90
40287;DHT22;25998;46.604;13.610;2023-02-04T05:54:26;5.20;99.90
40287;DHT22;25998;46.604;13.610;2023-02-04T05:57:37;5.50;98.60
40287;DHT22;25998;46.604;13.610;2023-02-04T06:00:49;5.50;98.90
40287;DHT22;25998;46.604;13.610;2023-02-04T06:03:59;5.60;97.90
40287;DHT22;25998;46.604;13.610;2023-02-04T06:07:10;5.50;99.00
40287;DHT22;25998;46.604;13.610;2023-02-04T06:10:21;5.50;98.30
40287;DHT22;25998;46.604;13.610;2023-02-04T06:13:32;5.50;98.60
40287;DHT22;25998;46.604;13.610;2023-02-04T06:16:42;5.60;96.80
40287;DHT22;25998;46.604;13.610;2023-02-04T06:19:53;5.60;97.00
40287;DHT22;25998;46.604;13.610;2023-02-04T06:23:05;6.20;93.10
40287;DHT22;25998;46.604;13.610;2023-02-04T06:26:16;6.40;93.80
40287;DHT22;25998;46.604;13.610;2023-02-04T06:29:26;6.40;93.20
40287;DHT22;25998;46.604;13.610;2023-02-04T06:32:37;6.50;93.30
40287;DHT22;25998;46.604;13.610;2023-02-04T06:35:48;6.60;92.00
40287;DHT22;25998;46.604;13.610;2023-02-04T06:38:59;6.70;92.60
40287;DHT22;25998;46.604;13.610;2023-02-04T06:42:10;6.70;91.60
40287;DHT22;25998;46.604;13.610;2023-02-04T06:45:21;7.10;88.80
40287;DHT22;25998;46.604;13.610;2023-02-04T06:48:32;7.20;90.30
40287;DHT22;25998;46.604;13.610;2023-02-04T06:51:42;7.30;88.70
40287;DHT22;25998;46.604;13.610;2023-02-04T06:54:53;7.30;87.90
40287;DHT22;25998;46.604;13.610;2023-02-04T06:58:04;7.50;85.20
40287;DHT22;25998;46.604;13.610;2023-02-04T07:01:15;7.70;84.20
40287;DHT22;25998;46.604;13.610;2023-02-04T07:04:26;7.70;86.60
40287;DHT22;25998;46.604;13.610;2023-02-04T07:07:37;7.80;83.00
40287;DHT22;25998;46.604;13.610;2023-02-04T07:10:48;7.80;82.50
40287;DHT22;25998;46.604;13.610;2023-02-04T07:13:59;7.70;87.10
40287;DHT22;25998;46.604;13.610;2023-02-04T07:17:09;7.80;79.50
40287;DHT22;25998;46.604;13.610;2023-02-04T07:20:20;7.90;81.10
40287;DHT22;25998;46.604;13.610;2023-02-04T07:23:31;8.00;82.50
40287;DHT22;25998;46.604;13.610;2023-02-04T07:26:42;7.80;80.80
40287;DHT22;25998;46.604;13.610;2023-02-04T07:29:53;8.00;82.40
40287;DHT22;25998;46.604;13.610;2023-02-04T07:33:03;7.90;82.10
40287;DHT22;25998;46.604;13.610;2023-02-04T07:36:14;7.80;81.20
40287;DHT22;25998;46.604;13.610;2023-02-04T07:39:25;7.70;84.10
40287;DHT22;25998;46.604;13.610;2023-02-04T07:42:36;7.70;82.00
40287;DHT22;25998;46.604;13.610;2023-02-04T07:45:47;7.90;77.50
40287;DHT22;25998;46.604;13.610;2023-02-04T07:48:57;8.10;75.80
40287;DHT22;25998;46.604;13.610;2023-02-04T07:52:08;8.30;78.90
40287;DHT22;25998;46.604;13.610;2023-02-04T07:55:19;8.20;79.60
40287;DHT22;25998;46.604;13.610;2023-02-04T07:58:30;8.20;78.70
40287;DHT22;25998;46.604;13.610;2023-02-04T08:01:41;8.20;79.00
40287;DHT22;25998;46.604;13.610;2023-02-04T08:04:51;8.00;87.60
40287;DHT22;25998;46.604;13.610;2023-02-04T08:08:02;8.20;77.00
40287;DHT22;25998;46.604;13.610;2023-02-04T08:11:13;8.20;77.80
40287;DHT22;25998;46.604;13.610;2023-02-04T08:14:24;8.20;82.30
40287;DHT22;25998;46.604;13.610;2023-02-04T08:17:35;7.80;85.20
40287;DHT22;25998;46.604;13.610;2023-02-04T08:20:46;7.80;83.00
40287;DHT22;25998;46.604;13.610;2023-02-04T08:23:56;8.00;78.10
40287;DHT22;25998;46.604;13.610;2023-02-04T08:27:07;8.00;78.70
40287;DHT22;25998;46.604;13.610;2023-02-04T08:30:18;7.80;90.10
40287;DHT22;25998;46.604;13.610;2023-02-04T08:33:29;7.80;82.50
40287;DHT22;25998;46.604;13.610;2023-02-04T08:36:40;8.00;81.80
40287;DHT22;25998;46.604;13.610;2023-02-04T08:39:51;8.10;85.00
40287;DHT22;25998;46.604;13.610;2023-02-04T08:43:02;7.90;82.00
40287;DHT22;25998;46.604;13.610;2023-02-04T08:46:13;8.00;83.10
40287;DHT22;25998;46.604;13.610;2023-02-04T08:49:24;8.00;85.50
40287;DHT22;25998;46.604;13.610;2023-02-04T08:52:34;8.10;84.40
40287;DHT22;25998;46.604;13.610;2023-02-04T08:55:46;8.00;84.10
40287;DHT22;25998;46.604;13.610;2023-02-04T08:58:57;7.90;82.30
40287;DHT22;25998;46.604;13.610;2023-02-04T09:02:09;8.10;82.40
40287;DHT22;25998;46.604;13.610;2023-02-04T09:05:20;8.50;81.70
40287;DHT22;25998;46.604;13.610;2023-02-04T09:08:30;9.20;81.80
40287;DHT22;25998;46.604;13.610;2023-02-04T09:11:42;9.80;79.80
40287;DHT22;25998;46.604;13.610;2023-02-04T09:14:53;10.40;75.90
40287;DHT22;25998;46.604;13.610;2023-02-04T09:18:04;10.80;77.70
40287;DHT22;25998;46.604;13.610;2023-02-04T09:21:24;11.20;76.20
40287;DHT22;25998;46.604;13.610;2023-02-04T09:24:35;10.80;76.10
40287;DHT22;25998;46.604;13.610;2023-02-04T09:27:46;10.70;77.40
40287;DHT22;25998;46.604;13.610;2023-02-04T09:30:57;10.10;73.60
40287;DHT22;25998;46.604;13.610;2023-02-04T09:34:08;10.30;74.30
40287;DHT22;25998;46.604;13.610;2023-02-04T09:37:19;10.50;73.90
40287;DHT22;25998;46.604;13.610;2023-02-04T09:40:32;10.60;74.40
40287;DHT22;25998;46.604;13.610;2023-02-04T09:43:46;11.30;73.80
40287;DHT22;25998;46.604;13.610;2023-02-04T09:46:58;11.50;72.90
40287;DHT22;25998;46.604;13.610;2023-02-04T09:50:15;11.30;72.20
40287;DHT22;25998;46.604;13.610;2023-02-04T09:53:26;10.50;72.40
40287;DHT22;25998;46.604;13.610;2023-02-04T09:56:37;10.80;74.20
40287;DHT22;25998;46.604;13.610;2023-02-04T09:59:48;11.10;73.20
40287;DHT22;25998;46.604;13.610;2023-02-04T10:03:02;11.10;76.70
40287;DHT22;25998;46.604;13.610;2023-02-04T10:06:20;10.60;71.60
40287;DHT22;25998;46.604;13.610;2023-02-04T10:09:33;10.80;73.60
40287;DHT22;25998;46.604;13.610;2023-02-04T10:12:44;10.40;71.90
40287;DHT22;25998;46.604;13.610;2023-02-04T10:15:56;10.60;73.80
40287;DHT22;25998;46.604;13.610;2023-02-04T10:19:14;10.50;72.20
40287;DHT22;25998;46.604;13.610;2023-02-04T10:22:25;10.60;72.10
40287;DHT22;25998;46.604;13.610;2023-02-04T10:25:36;10.70;71.30
40287;DHT22;25998;46.604;13.610;2023-02-04T10:28:47;11.00;72.60
40287;DHT22;25998;46.604;13.610;2023-02-04T10:31:59;10.90;72.20
40287;DHT22;25998;46.604;13.610;2023-02-04T10:35:15;11.00;71.90
40287;DHT22;25998;46.604;13.610;2023-02-04T10:38:26;11.30;73.00
40287;DHT22;25998;46.604;13.610;2023-02-04T10:41:38;11.60;71.60
40287;DHT22;25998;46.604;13.610;2023-02-04T10:44:53;11.80;70.90
40287;DHT22;25998;46.604;13.610;2023-02-04T10:48:05;12.00;68.80
40287;DHT22;25998;46.604;13.610;2023-02-04T10:51:17;12.00;68.50
40287;DHT22;25998;46.604;13.610;2023-02-04T10:54:39;11.70;68.80
40287;DHT22;25998;46.604;13.610;2023-02-04T10:57:53;12.00;71.60
40287;DHT22;25998;46.604;13.610;2023-02-04T11:01:09;12.00;69.20
40287;DHT22;25998;46.604;13.610;2023-02-04T11:04:21;11.80;67.30
40287;DHT22;25998;46.604;13.610;2023-02-04T11:07:32;11.80;69.20
40287;DHT22;25998;46.604;13.610;2023-02-04T11:10:42;12.00;68.00
40287;DHT22;25998;46.604;13.610;2023-02-04T11:17:07;12.10;65.90
40287;DHT22;25998;46.604;13.610;2023-02-04T11:20:31;12.30;66.60
40287;DHT22;25998;46.604;13.610;2023-02-04T11:23:42;12.80;74.30
40287;DHT22;25998;46.604;13.610;2023-02-04T11:27:24;13.10;68.60
40287;DHT22;25998;46.604;13.610;2023-02-04T11:30:36;13.20;66.90
40287;DHT22;25998;46.604;13.610;2023-02-04T11:33:48;13.40;65.60
40287;DHT22;25998;46.604;13.610;2023-02-04T11:40:31;13.40;65.70
40287;DHT22;25998;46.604;13.610;2023-02-04T11:43:42;13.50;64.00
40287;DHT22;25998;46.604;13.610;2023-02-04T11:46:54;13.20;66.40
40287;DHT22;25998;46.604;13.610;2023-02-04T11:50:32;13.00;65.10
40287;DHT22;25998;46.604;13.610;2023-02-04T11:53:43;12.70;66.10
40287;DHT22;25998;46.604;13.610;2023-02-04T11:57:00;13.20;74.00
40287;DHT22;25998;46.604;13.610;2023-02-04T12:00:15;13.50;66.10
40287;DHT22;25998;46.604;13.610;2023-02-04T12:03:27;13.20;68.70
40287;DHT22;25998;46.604;13.610;2023-02-04T12:06:43;13.30;68.50
40287;DHT22;25998;46.604;13.610;2023-02-04T12:09:55;13.00;66.00
40287;DHT22;25998;46.604;13.610;2023-02-04T12:13:18;12.90;71.70
40287;DHT22;25998;46.604;13.610;2023-02-04T12:16:49;12.90;69.50
40287;DHT22;25998;46.604;13.610;2023-02-04T12:20:03;12.40;72.90
40287;DHT22;25998;46.604;13.610;2023-02-04T12:23:14;12.50;74.90
40287;DHT22;25998;46.604;13.610;2023-02-04T12:35:48;11.60;65.60
40287;DHT22;25998;46.604;13.610;2023-02-04T12:38:59;11.30;68.50
40287;DHT22;25998;46.604;13.610;2023-02-04T12:42:10;11.40;69.00
40287;DHT22;25998;46.604;13.610;2023-02-04T12:45:21;11.00;66.80
40287;DHT22;25998;46.604;13.610;2023-02-04T12:48:32;11.10;69.00
40287;DHT22;25998;46.604;13.610;2023-02-04T12:51:42;11.10;72.70
40287;DHT22;25998;46.604;13.610;2023-02-04T12:54:53;10.80;68.20
40287;DHT22;25998;46.604;13.610;2023-02-04T12:58:04;11.00;68.20
40287;DHT22;25998;46.604;13.610;2023-02-04T13:01:15;10.90;66.10
40287;DHT22;25998;46.604;13.610;2023-02-04T13:04:26;10.80;68.30
40287;DHT22;25998;46.604;13.610;2023-02-04T13:07:37;10.50;71.10
40287;DHT22;25998;46.604;13.610;2023-02-04T13:10:50;10.00;67.20
40287;DHT22;25998;46.604;13.610;2023-02-04T13:14:01;9.90;69.30
40287;DHT22;25998;46.604;13.610;2023-02-04T13:17:12;9.90;69.80
40287;DHT22;25998;46.604;13.610;2023-02-04T13:20:23;9.80;72.00
40287;DHT22;25998;46.604;13.610;2023-02-04T13:23:33;9.70;69.30
40287;DHT22;25998;46.604;13.610;2023-02-04T13:26:45;9.50;71.50
40287;DHT22;25998;46.604;13.610;2023-02-04T13:29:56;9.50;69.30
40287;DHT22;25998;46.604;13.610;2023-02-04T13:33:07;9.30;72.30
40287;DHT22;25998;46.604;13.610;2023-02-04T13:36:18;9.30;70.60
40287;DHT22;25998;46.604;13.610;2023-02-04T13:39:29;9.10;70.20
40287;DHT22;25998;46.604;13.610;2023-02-04T13:42:40;9.20;70.30
40287;DHT22;25998;46.604;13.610;2023-02-04T13:45:51;9.20;69.60
40287;DHT22;25998;46.604;13.610;2023-02-04T13:49:02;9.10;72.60
40287;DHT22;25998;46.604;13.610;2023-02-04T13:52:13;9.30;71.50
40287;DHT22;25998;46.604;13.610;2023-02-04T13:55:24;9.10;68.20
40287;DHT22;25998;46.604;13.610;2023-02-04T13:58:35;9.00;74.10
40287;DHT22;25998;46.604;13.610;2023-02-04T14:01:46;9.10;73.10
40287;DHT22;25998;46.604;13.610;2023-02-04T14:04:57;9.30;71.30
40287;DHT22;25998;46.604;13.610;2023-02-04T14:08:08;9.40;71.60
40287;DHT22;25998;46.604;13.610;2023-02-04T14:11:19;9.40;69.80
40287;DHT22;25998;46.604;13.610;2023-02-04T14:14:31;9.30;70.10
40287;DHT22;25998;46.604;13.610;2023-02-04T14:17:42;9.40;70.40
40287;DHT22;25998;46.604;13.610;2023-02-04T14:20:53;9.20;67.60
40287;DHT22;25998;46.604;13.610;2023-02-04T14:24:04;9.20;68.70
40287;DHT22;25998;46.604;13.610;2023-02-04T14:27:16;9.30;68.50
40287;DHT22;25998;46.604;13.610;2023-02-04T14:30:28;9.20;67.60
40287;DHT22;25998;46.604;13.610;2023-02-04T14:33:39;9.10;68.50
40287;DHT22;25998;46.604;13.610;2023-02-04T14:36:50;9.10;66.40
40287;DHT22;25998;46.604;13.610;2023-02-04T14:40:01;9.20;71.90
40287;DHT22;25998;46.604;13.610;2023-02-04T14:43:12;9.10;68.70
40287;DHT22;25998;46.604;13.610;2023-02-04T14:46:24;9.20;68.70
40287;DHT22;25998;46.604;13.610;2023-02-04T14:49:35;9.10;67.80
40287;DHT22;25998;46.604;13.610;2023-02-04T14:52:47;9.20;74.70
40287;DHT22;25998;46.604;13.610;2023-02-04T14:55:58;9.40;75.00
40287;DHT22;25998;46.604;13.610;2023-02-04T14:59:09;9.20;72.30
40287;DHT22;25998;46.604;13.610;2023-02-04T15:02:20;9.20;74.40
40287;DHT22;25998;46.604;13.610;2023-02-04T15:05:32;9.10;77.10
40287;DHT22;25998;46.604;13.610;2023-02-04T15:08:42;8.80;78.00
40287;DHT22;25998;46.604;13.610;2023-02-04T15:11:54;8.60;67.60
40287;DHT22;25998;46.604;13.610;2023-02-04T15:15:06;8.50;72.60
40287;DHT22;25998;46.604;13.610;2023-02-04T15:18:17;8.40;75.70
40287;DHT22;25998;46.604;13.610;2023-02-04T15:21:28;8.40;76.60
40287;DHT22;25998;46.604;13.610;2023-02-04T15:24:39;8.30;73.90
40287;DHT22;25998;46.604;13.610;2023-02-04T15:27:50;8.40;75.20
40287;DHT22;25998;46.604;13.610;2023-02-04T15:31:01;8.10;71.00
40287;DHT22;25998;46.604;13.610;2023-02-04T15:34:13;8.30;70.90
40287;DHT22;25998;46.604;13.610;2023-02-04T15:37:24;8.00;73.80
40287;DHT22;25998;46.604;13.610;2023-02-04T15:40:35;8.00;73.40
40287;DHT22;25998;46.604;13.610;2023-02-04T15:43:46;8.10;72.40
40287;DHT22;25998;46.604;13.610;2023-02-04T15:46:58;7.80;70.30
40287;DHT22;25998;46.604;13.610;2023-02-04T15:50:09;7.80;77.50
40287;DHT22;25998;46.604;13.610;2023-02-04T15:53:22;7.70;75.70
40287;DHT22;25998;46.604;13.610;2023-02-04T15:56:33;7.70;78.80
40287;DHT22;25998;46.604;13.610;2023-02-04T15:59:44;7.60;81.10
40287;DHT22;25998;46.604;13.610;2023-02-04T16:02:55;7.40;81.90
40287;DHT22;25998;46.604;13.610;2023-02-04T16:06:06;7.10;77.40
40287;DHT22;25998;46.604;13.610;2023-02-04T16:09:16;7.00;80.90
40287;DHT22;25998;46.604;13.610;2023-02-04T16:12:27;7.10;83.00
40287;DHT22;25998;46.604;13.610;2023-02-04T16:15:39;7.00;82.50
40287;DHT22;25998;46.604;13.610;2023-02-04T16:18:50;6.80;84.60
40287;DHT22;25998;46.604;13.610;2023-02-04T16:22:00;6.50;85.80
40287;DHT22;25998;46.604;13.610;2023-02-04T16:25:11;6.30;87.90
40287;DHT22;25998;46.604;13.610;2023-02-04T16:28:22;6.20;86.00
40287;DHT22;25998;46.604;13.610;2023-02-04T16:31:33;6.00;86.70
40287;DHT22;25998;46.604;13.610;2023-02-04T16:34:44;6.00;85.20
40287;DHT22;25998;46.604;13.610;2023-02-04T16:37:55;6.10;87.30
40287;DHT22;25998;46.604;13.610;2023-02-04T16:41:06;6.00;86.50
40287;DHT22;25998;46.604;13.610;2023-02-04T16:44:17;6.00;85.40
40287;DHT22;25998;46.604;13.610;2023-02-04T16:47:28;5.90;86.70
40287;DHT22;25998;46.604;13.610;2023-02-04T16:50:39;5.80;88.10
40287;DHT22;25998;46.604;13.610;2023-02-04T16:53:50;5.50;90.30
40287;DHT22;25998;46.604;13.610;2023-02-04T16:57:01;5.50;88.70
40287;DHT22;25998;46.604;13.610;2023-02-04T17:00:13;5.70;88.40
40287;DHT22;25998;46.604;13.610;2023-02-04T17:03:24;5.70;88.10
40287;DHT22;25998;46.604;13.610;2023-02-04T17:06:37;5.60;88.60
40287;DHT22;25998;46.604;13.610;2023-02-04T17:09:48;5.30;89.60
40287;DHT22;25998;46.604;13.610;2023-02-04T17:13:00;5.20;88.80
40287;DHT22;25998;46.604;13.610;2023-02-04T17:16:11;5.30;90.00
40287;DHT22;25998;46.604;13.610;2023-02-04T17:19:22;5.20;90.50
40287;DHT22;25998;46.604;13.610;2023-02-04T17:22:33;5.20;90.30
40287;DHT22;25998;46.604;13.610;2023-02-04T17:25:44;5.10;90.90
40287;DHT22;25998;46.604;13.610;2023-02-04T17:28:55;5.10;90.60
40287;DHT22;25998;46.604;13.610;2023-02-04T17:32:06;5.00;90.60
40287;DHT22;25998;46.604;13.610;2023-02-04T17:35:18;5.00;90.80
40287;DHT22;25998;46.604;13.610;2023-02-04T17:38:28;4.90;90.90
40287;DHT22;25998;46.604;13.610;2023-02-04T17:41:39;4.90;90.70
40287;DHT22;25998;46.604;13.610;2023-02-04T17:44:51;4.60;91.80
40287;DHT22;25998;46.604;13.610;2023-02-04T17:48:01;4.80;92.00
40287;DHT22;25998;46.604;13.610;2023-02-04T17:51:14;4.80;90.70
40287;DHT22;25998;46.604;13.610;2023-02-04T17:54:25;4.80;90.90
40287;DHT22;25998;46.604;13.610;2023-02-04T17:57:36;4.60;90.10
40287;DHT22;25998;46.604;13.610;2023-02-04T18:00:48;4.60;90.00
40287;DHT22;25998;46.604;13.610;2023-02-04T18:03:59;4.40;90.90
40287;DHT22;25998;46.604;13.610;2023-02-04T18:07:10;4.30;91.10
40287;DHT22;25998;46.604;13.610;2023-02-04T18:10:27;4.10;92.00
40287;DHT22;25998;46.604;13.610;2023-02-04T18:13:41;4.30;91.80
40287;DHT22;25998;46.604;13.610;2023-02-04T18:16:57;4.10;92.20
40287;DHT22;25998;46.604;13.610;2023-02-04T18:20:18;4.10;91.70
40287;DHT22;25998;46.604;13.610;2023-02-04T18:23:31;4.10;92.40
40287;DHT22;25998;46.604;13.610;2023-02-04T18:26:51;4.00;92.30
40287;DHT22;25998;46.604;13.610;2023-02-04T18:30:18;4.00;91.40
40287;DHT22;25998;46.604;13.610;2023-02-04T18:33:31;4.00;92.00
40287;DHT22;25998;46.604;13.610;2023-02-04T18:36:43;4.00;92.70
40287;DHT22;25998;46.604;13.610;2023-02-04T18:43:27;3.60;91.70
40287;DHT22;25998;46.604;13.610;2023-02-04T18:46:43;3.70;92.00
40287;DHT22;25998;46.604;13.610;2023-02-04T18:49:59;3.60;92.30
40287;DHT22;25998;46.604;13.610;2023-02-04T18:56:25;3.40;92.40
40287;DHT22;25998;46.604;13.610;2023-02-04T18:59:36;3.50;92.10
40287;DHT22;25998;46.604;13.610;2023-02-04T19:02:59;3.40;92.70
40287;DHT22;25998;46.604;13.610;2023-02-04T19:06:37;3.40;92.20
40287;DHT22;25998;46.604;13.610;2023-02-04T19:09:49;3.10;92.10
40287;DHT22;25998;46.604;13.610;2023-02-04T19:13:38;3.00;92.70
40287;DHT22;25998;46.604;13.610;2023-02-04T19:16:51;3.00;92.60
40287;DHT22;25998;46.604;13.610;2023-02-04T19:20:17;3.20;92.60
40287;DHT22;25998;46.604;13.610;2023-02-04T19:23:35;3.10;92.60
40287;DHT22;25998;46.604;13.610;2023-02-04T19:26:53;3.00;93.40
40287;DHT22;25998;46.604;13.610;2023-02-04T19:33:42;3.40;92.70
40287;DHT22;25998;46.604;13.610;2023-02-04T19:36:55;3.10;92.10
40287;DHT22;25998;46.604;13.610;2023-02-04T19:40:30;2.90;92.70
40287;DHT22;25998;46.604;13.610;2023-02-04T19:43:41;2.80;93.00
40287;DHT22;25998;46.604;13.610;2023-02-04T19:46:52;2.80;92.70
40287;DHT22;25998;46.604;13.610;2023-02-04T19:50:29;2.60;93.40
40287;DHT22;25998;46.604;13.610;2023-02-04T19:53:41;2.60;93.50
40287;DHT22;25998;46.604;13.610;2023-02-04T19:56:53;2.40;93.80
40287;DHT22;25998;46.604;13.610;2023-02-04T20:03:45;2.10;94.10
40287;DHT22;25998;46.604;13.610;2023-02-04T20:06:56;2.50;94.00
40287;DHT22;25998;46.604;13.610;2023-02-04T20:13:19;2.50;91.80
40287;DHT22;25998;46.604;13.610;2023-02-04T20:16:52;2.50;93.70
40287;DHT22;25998;46.604;13.610;2023-02-04T20:20:30;2.10;94.60
40287;DHT22;25998;46.604;13.610;2023-02-04T20:23:41;2.10;94.60
40287;DHT22;25998;46.604;13.610;2023-02-04T20:26:52;2.20;95.30
40287;DHT22;25998;46.604;13.610;2023-02-04T20:33:44;2.60;94.40
40287;DHT22;25998;46.604;13.610;2023-02-04T20:36:56;2.50;93.30
40287;DHT22;25998;46.604;13.610;2023-02-04T20:40:22;2.20;93.70
40287;DHT22;25998;46.604;13.610;2023-02-04T20:43:35;2.00;94.20
40287;DHT22;25998;46.604;13.610;2023-02-04T20:46:46;2.20;95.30
40287;DHT22;25998;46.604;13.610;2023-02-04T20:49:58;2.40;93.20